sensor_id;sensor_type;location;lat;lon;timestamp;P1;durP1;ratioP1;P2;durP2;ratioP2
51491;SDS011;37569;50.548;8.778;2023-11-19T00:02:24;35;;;18.5;;
51491;SDS011;37569;50.548;8.778;2023-11-19T00:07:25;45.8;;;19.2;;
51491;SDS011;37569;50.548;8.778;2023-11-19T00:12:25;45.8;;;20.1;;
51491;SDS011;37569;50.548;8.778;2023-11-19T00:17:25;51.4;;;21.3;;
51491;SDS011;37569;50.548;8.778;2023-11-19T00:22:26;45.4;;;18.9;;
51491;SDS011;37569;50.548;8.778;2023-11-19T00:27:26;36.3;;;19.9;;
51491;SDS011;37569;50.548;8.778;2023-11-19T00:32:26;56.2;;;20.2;;
51491;SDS011;37569;50.548;8.778;2023-11-19T00:37:27;63.9;;;21.4;;
51491;SDS011;37569;50.548;8.778;2023-11-19T00:42:27;41.6;;;20.5;;
51491;SDS011;37569;50.548;8.778;2023-11-19T00:47:27;45.4;;;20.5;;
51491;SDS011;37569;50.548;8.778;2023-11-19T00:52:28;36.7;;;19.3;;
51491;SDS011;37569;50.548;8.778;2023-11-19T00:57:28;33.4;;;18;;
51491;SDS011;37569;50.548;8.778;2023-11-19T01:02:28;37;;;19.4;;
51491;SDS011;37569;50.548;8.778;2023-11-19T01:07:29;34.3;;;18.6;;
51491;SDS011;37569;50.548;8.778;2023-11-19T01:12:29;30.9;;;17.4;;
51491;SDS011;37569;50.548;8.778;2023-11-19T01:17:29;29.9;;;17;;
51491;SDS011;37569;50.548;8.778;2023-11-19T01:22:30;31;;;17.3;;
51491;SDS011;37569;50.548;8.778;2023-11-19T01:27:30;32.9;;;18.3;;
51491;SDS011;37569;50.548;8.778;2023-11-19T01:32:30;30.4;;;17.1;;
51491;SDS011;37569;50.548;8.778;2023-11-19T01:37:31;33.7;;;17.6;;
51491;SDS011;37569;50.548;8.778;2023-11-19T01:42:35;32.1;;;17.3;;
51491;SDS011;37569;50.548;8.778;2023-11-19T01:47:31;30.1;;;16.9;;
51491;SDS011;37569;50.548;8.778;2023-11-19T01:52:32;32.8;;;17.7;;
51491;SDS011;37569;50.548;8.778;2023-11-19T01:57:32;31.1;;;17.6;;
51491;SDS011;37569;50.548;8.778;2023-11-19T02:02:33;29.9;;;16.6;;
51491;SDS011;37569;50.548;8.778;2023-11-19T02:07:33;26;;;15.2;;
51491;SDS011;37569;50.548;8.778;2023-11-19T02:12:33;30.6;;;16.7;;
51491;SDS011;37569;50.548;8.778;2023-11-19T02:17:34;29.3;;;16.8;;
51491;SDS011;37569;50.548;8.778;2023-11-19T02:22:34;28.3;;;16.1;;
51491;SDS011;37569;50.548;8.778;2023-11-19T02:27:41;29.2;;;16.2;;
51491;SDS011;37569;50.548;8.778;2023-11-19T02:32:35;29.7;;;16.1;;
51491;SDS011;37569;50.548;8.778;2023-11-19T02:37:35;28.2;;;15.3;;
51491;SDS011;37569;50.548;8.778;2023-11-19T02:42:35;28;;;15.5;;
51491;SDS011;37569;50.548;8.778;2023-11-19T02:47:36;27.5;;;15.3;;
51491;SDS011;37569;50.548;8.778;2023-11-19T02:52:36;23.4;;;13.6;;
51491;SDS011;37569;50.548;8.778;2023-11-19T02:57:37;23.9;;;14.2;;
51491;SDS011;37569;50.548;8.778;2023-11-19T03:02:38;25.9;;;15;;
51491;SDS011;37569;50.548;8.778;2023-11-19T03:07:37;29.4;;;15.9;;
51491;SDS011;37569;50.548;8.778;2023-11-19T03:12:38;27.7;;;15.5;;
51491;SDS011;37569;50.548;8.778;2023-11-19T03:17:38;30.9;;;16.8;;
51491;SDS011;37569;50.548;8.778;2023-11-19T03:22:39;34;;;16.9;;
51491;SDS011;37569;50.548;8.778;2023-11-19T03:27:39;30.5;;;16.3;;
51491;SDS011;37569;50.548;8.778;2023-11-19T03:32:39;32.9;;;16.9;;
51491;SDS011;37569;50.548;8.778;2023-11-19T03:37:40;33.8;;;17.9;;
51491;SDS011;37569;50.548;8.778;2023-11-19T03:42:40;36.5;;;18.5;;
51491;SDS011;37569;50.548;8.778;2023-11-19T03:47:40;36.7;;;18;;
51491;SDS011;37569;50.548;8.778;2023-11-19T03:52:41;38;;;18.8;;
51491;SDS011;37569;50.548;8.778;2023-11-19T03:57:41;38.7;;;17.9;;
51491;SDS011;37569;50.548;8.778;2023-11-19T04:02:42;35.4;;;17.3;;
51491;SDS011;37569;50.548;8.778;2023-11-19T04:07:42;40.6;;;20;;
51491;SDS011;37569;50.548;8.778;2023-11-19T04:12:42;32.8;;;17.1;;
51491;SDS011;37569;50.548;8.778;2023-11-19T04:17:43;29.4;;;16.5;;
51491;SDS011;37569;50.548;8.778;2023-11-19T04:22:43;31.9;;;17;;
51491;SDS011;37569;50.548;8.778;2023-11-19T04:27:44;38.3;;;18.3;;
51491;SDS011;37569;50.548;8.778;2023-11-19T04:32:44;37.1;;;18.3;;
51491;SDS011;37569;50.548;8.778;2023-11-19T04:37:44;33.5;;;17.3;;
51491;SDS011;37569;50.548;8.778;2023-11-19T04:42:45;33.9;;;17.7;;
51491;SDS011;37569;50.548;8.778;2023-11-19T04:47:45;31.9;;;16.5;;
51491;SDS011;37569;50.548;8.778;2023-11-19T04:52:46;27.6;;;15.7;;
51491;SDS011;37569;50.548;8.778;2023-11-19T04:57:46;32.3;;;16.5;;
51491;SDS011;37569;50.548;8.778;2023-11-19T05:02:46;29.6;;;16.3;;
51491;SDS011;37569;50.548;8.778;2023-11-19T05:07:47;32.9;;;16.8;;
51491;SDS011;37569;50.548;8.778;2023-11-19T05:12:47;27.3;;;14;;
51491;SDS011;37569;50.548;8.778;2023-11-19T05:17:48;23.3;;;11.9;;
51491;SDS011;37569;50.548;8.778;2023-11-19T05:22:48;23;;;12.2;;
51491;SDS011;37569;50.548;8.778;2023-11-19T05:27:48;22.3;;;12;;
51491;SDS011;37569;50.548;8.778;2023-11-19T05:32:49;25;;;13.5;;
51491;SDS011;37569;50.548;8.778;2023-11-19T05:37:49;28.6;;;14.4;;
51491;SDS011;37569;50.548;8.778;2023-11-19T05:42:50;31;;;15.3;;
51491;SDS011;37569;50.548;8.778;2023-11-19T05:47:50;32.4;;;15.4;;
51491;SDS011;37569;50.548;8.778;2023-11-19T05:52:50;29.9;;;15.2;;
51491;SDS011;37569;50.548;8.778;2023-11-19T05:57:51;29.8;;;14.9;;
51491;SDS011;37569;50.548;8.778;2023-11-19T06:02:51;24.3;;;13.5;;
51491;SDS011;37569;50.548;8.778;2023-11-19T06:07:52;23.4;;;12.3;;
51491;SDS011;37569;50.548;8.778;2023-11-19T06:12:52;19.6;;;10.4;;
51491;SDS011;37569;50.548;8.778;2023-11-19T06:17:52;18.5;;;10.9;;
51491;SDS011;37569;50.548;8.778;2023-11-19T06:22:53;14.8;;;8.2;;
51491;SDS011;37569;50.548;8.778;2023-11-19T06:27:53;13;;;7.8;;
51491;SDS011;37569;50.548;8.778;2023-11-19T06:32:54;14;;;7.8;;
51491;SDS011;37569;50.548;8.778;2023-11-19T06:37:54;12.8;;;7.6;;
51491;SDS011;37569;50.548;8.778;2023-11-19T06:42:54;12.6;;;6.7;;
51491;SDS011;37569;50.548;8.778;2023-11-19T06:47:55;11.2;;;6.8;;
51491;SDS011;37569;50.548;8.778;2023-11-19T06:52:55;13.3;;;7.8;;
51491;SDS011;37569;50.548;8.778;2023-11-19T06:57:56;14.8;;;7.9;;
51491;SDS011;37569;50.548;8.778;2023-11-19T07:02:56;14;;;7.9;;
51491;SDS011;37569;50.548;8.778;2023-11-19T07:07:56;15.8;;;8.4;;
51491;SDS011;37569;50.548;8.778;2023-11-19T07:12:57;17.8;;;9.2;;
51491;SDS011;37569;50.548;8.778;2023-11-19T07:17:57;17.9;;;8.4;;
51491;SDS011;37569;50.548;8.778;2023-11-19T07:22:57;13.4;;;7.8;;
51491;SDS011;37569;50.548;8.778;2023-11-19T07:27:58;13.2;;;7.5;;
51491;SDS011;37569;50.548;8.778;2023-11-19T07:32:58;14.4;;;7;;
51491;SDS011;37569;50.548;8.778;2023-11-19T07:37:59;15.6;;;7.9;;
51491;SDS011;37569;50.548;8.778;2023-11-19T07:42:59;15.2;;;8.6;;
51491;SDS011;37569;50.548;8.778;2023-11-19T07:47:59;18.5;;;9;;
51491;SDS011;37569;50.548;8.778;2023-11-19T07:53:00;17.1;;;8.2;;
51491;SDS011;37569;50.548;8.778;2023-11-19T07:58:00;16;;;8;;
51491;SDS011;37569;50.548;8.778;2023-11-19T08:03:00;11.1;;;7.8;;
51491;SDS011;37569;50.548;8.778;2023-11-19T08:08:01;14.8;;;8.5;;
51491;SDS011;37569;50.548;8.778;2023-11-19T08:13:01;11.7;;;7.3;;
51491;SDS011;37569;50.548;8.778;2023-11-19T08:18:02;11.2;;;7;;
51491;SDS011;37569;50.548;8.778;2023-11-19T08:23:02;13.6;;;7.5;;
51491;SDS011;37569;50.548;8.778;2023-11-19T08:28:03;7.6;;;4.5;;
51491;SDS011;37569;50.548;8.778;2023-11-19T08:33:03;8.1;;;2.9;;
51491;SDS011;37569;50.548;8.778;2023-11-19T08:38:04;8.8;;;2.7;;
51491;SDS011;37569;50.548;8.778;2023-11-19T08:43:04;9.1;;;2.3;;
51491;SDS011;37569;50.548;8.778;2023-11-19T08:48:05;7.2;;;2;;
51491;SDS011;37569;50.548;8.778;2023-11-19T08:53:05;9.2;;;2.3;;
51491;SDS011;37569;50.548;8.778;2023-11-19T08:58:06;5.6;;;2.2;;
51491;SDS011;37569;50.548;8.778;2023-11-19T09:03:06;6;;;2.2;;
51491;SDS011;37569;50.548;8.778;2023-11-19T09:08:07;6.7;;;1.8;;
51491;SDS011;37569;50.548;8.778;2023-11-19T09:13:07;7.4;;;2.1;;
51491;SDS011;37569;50.548;8.778;2023-11-19T09:18:08;7;;;1.9;;
51491;SDS011;37569;50.548;8.778;2023-11-19T09:23:08;8.3;;;2.1;;
51491;SDS011;37569;50.548;8.778;2023-11-19T09:28:09;6.9;;;2;;
51491;SDS011;37569;50.548;8.778;2023-11-19T09:33:09;6.2;;;2;;
51491;SDS011;37569;50.548;8.778;2023-11-19T09:38:10;9.4;;;2.9;;
51491;SDS011;37569;50.548;8.778;2023-11-19T09:43:10;10.7;;;2.6;;
51491;SDS011;37569;50.548;8.778;2023-11-19T09:48:11;8.2;;;2.1;;
51491;SDS011;37569;50.548;8.778;2023-11-19T09:53:12;8.7;;;2.5;;
51491;SDS011;37569;50.548;8.778;2023-11-19T09:58:12;9;;;2.5;;
51491;SDS011;37569;50.548;8.778;2023-11-19T10:03:13;9.2;;;2.6;;
51491;SDS011;37569;50.548;8.778;2023-11-19T10:08:13;10.4;;;2.7;;
51491;SDS011;37569;50.548;8.778;2023-11-19T10:13:14;9.7;;;2.5;;
51491;SDS011;37569;50.548;8.778;2023-11-19T10:18:15;8.6;;;2.3;;
51491;SDS011;37569;50.548;8.778;2023-11-19T10:23:15;9.2;;;2.7;;
51491;SDS011;37569;50.548;8.778;2023-11-19T10:28:15;10.8;;;3;;
51491;SDS011;37569;50.548;8.778;2023-11-19T10:33:16;11.6;;;3.1;;
51491;SDS011;37569;50.548;8.778;2023-11-19T10:38:17;11.8;;;3.2;;
51491;SDS011;37569;50.548;8.778;2023-11-19T10:43:17;11.3;;;3.2;;
51491;SDS011;37569;50.548;8.778;2023-11-19T10:48:18;14.9;;;3.6;;
51491;SDS011;37569;50.548;8.778;2023-11-19T10:53:18;14.7;;;3.3;;
51491;SDS011;37569;50.548;8.778;2023-11-19T10:58:19;11.5;;;2.7;;
51491;SDS011;37569;50.548;8.778;2023-11-19T11:03:20;11.8;;;2.8;;
51491;SDS011;37569;50.548;8.778;2023-11-19T11:08:20;13.9;;;3.2;;
51491;SDS011;37569;50.548;8.778;2023-11-19T11:13:22;15.8;;;3.6;;
51491;SDS011;37569;50.548;8.778;2023-11-19T11:18:21;10.3;;;3;;
51491;SDS011;37569;50.548;8.778;2023-11-19T11:23:30;10.4;;;2.9;;
51491;SDS011;37569;50.548;8.778;2023-11-19T11:28:26;9.5;;;3.1;;
51491;SDS011;37569;50.548;8.778;2023-11-19T11:33:26;11.7;;;3.1;;
51491;SDS011;37569;50.548;8.778;2023-11-19T11:38:24;12.5;;;3.2;;
51491;SDS011;37569;50.548;8.778;2023-11-19T11:43:56;13.9;;;3.4;;
51491;SDS011;37569;50.548;8.778;2023-11-19T11:48:25;11.9;;;3.6;;
51491;SDS011;37569;50.548;8.778;2023-11-19T11:53:26;12.4;;;3.2;;
51491;SDS011;37569;50.548;8.778;2023-11-19T11:58:29;10.8;;;3;;
51491;SDS011;37569;50.548;8.778;2023-11-19T12:03:28;14.8;;;3.5;;
51491;SDS011;37569;50.548;8.778;2023-11-19T12:08:28;11.4;;;3.1;;
51491;SDS011;37569;50.548;8.778;2023-11-19T12:13:42;9.1;;;2.8;;
51491;SDS011;37569;50.548;8.778;2023-11-19T12:18:29;11.9;;;3.1;;
51491;SDS011;37569;50.548;8.778;2023-11-19T12:23:30;11;;;3.1;;
51491;SDS011;37569;50.548;8.778;2023-11-19T12:28:30;13.3;;;3.2;;
51491;SDS011;37569;50.548;8.778;2023-11-19T12:33:31;12.2;;;3.5;;
51491;SDS011;37569;50.548;8.778;2023-11-19T12:38:31;18.5;;;3.7;;
51491;SDS011;37569;50.548;8.778;2023-11-19T12:43:32;15.3;;;3.6;;
51491;SDS011;37569;50.548;8.778;2023-11-19T12:48:33;14.1;;;3.5;;
51491;SDS011;37569;50.548;8.778;2023-11-19T12:53:47;11.7;;;3;;
51491;SDS011;37569;50.548;8.778;2023-11-19T12:58:34;14.8;;;3.3;;
51491;SDS011;37569;50.548;8.778;2023-11-19T13:03:35;13.2;;;3.4;;
51491;SDS011;37569;50.548;8.778;2023-11-19T13:08:36;11.2;;;2.9;;
51491;SDS011;37569;50.548;8.778;2023-11-19T13:13:53;12.3;;;3.1;;
51491;SDS011;37569;50.548;8.778;2023-11-19T13:18:36;11.5;;;3;;
51491;SDS011;37569;50.548;8.778;2023-11-19T13:23:37;12;;;4.1;;
51491;SDS011;37569;50.548;8.778;2023-11-19T13:28:38;11;;;3;;
51491;SDS011;37569;50.548;8.778;2023-11-19T13:33:38;9.2;;;2.7;;
51491;SDS011;37569;50.548;8.778;2023-11-19T13:38:39;11.6;;;3;;
51491;SDS011;37569;50.548;8.778;2023-11-19T13:43:40;9.4;;;2.8;;
51491;SDS011;37569;50.548;8.778;2023-11-19T13:48:40;10.7;;;2.8;;
51491;SDS011;37569;50.548;8.778;2023-11-19T13:53:41;9.9;;;2.8;;
51491;SDS011;37569;50.548;8.778;2023-11-19T13:58:41;11.6;;;2.7;;
51491;SDS011;37569;50.548;8.778;2023-11-19T14:03:42;8.1;;;2.4;;
51491;SDS011;37569;50.548;8.778;2023-11-19T14:08:42;8.9;;;2.8;;
51491;SDS011;37569;50.548;8.778;2023-11-19T14:13:43;9.5;;;2.6;;
51491;SDS011;37569;50.548;8.778;2023-11-19T14:18:44;8.8;;;2.3;;
51491;SDS011;37569;50.548;8.778;2023-11-19T14:23:44;8.6;;;2.4;;
51491;SDS011;37569;50.548;8.778;2023-11-19T14:28:45;9.3;;;2.9;;
51491;SDS011;37569;50.548;8.778;2023-11-19T14:33:46;8.7;;;2.4;;
51491;SDS011;37569;50.548;8.778;2023-11-19T14:38:46;11.9;;;3.2;;
51491;SDS011;37569;50.548;8.778;2023-11-19T14:43:47;12.3;;;2.8;;
51491;SDS011;37569;50.548;8.778;2023-11-19T14:48:47;7.5;;;2.7;;
51491;SDS011;37569;50.548;8.778;2023-11-19T14:53:48;10.7;;;2.8;;
51491;SDS011;37569;50.548;8.778;2023-11-19T14:58:48;10.3;;;2.7;;
51491;SDS011;37569;50.548;8.778;2023-11-19T15:03:49;13.8;;;3.4;;
51491;SDS011;37569;50.548;8.778;2023-11-19T15:08:50;13.2;;;3.6;;
51491;SDS011;37569;50.548;8.778;2023-11-19T15:13:50;10;;;3.2;;
51491;SDS011;37569;50.548;8.778;2023-11-19T15:18:51;8.1;;;2.4;;
51491;SDS011;37569;50.548;8.778;2023-11-19T15:23:51;17.7;;;7.4;;
51491;SDS011;37569;50.548;8.778;2023-11-19T15:28:52;16.8;;;6.1;;
51491;SDS011;37569;50.548;8.778;2023-11-19T15:33:52;34;;;17.8;;
51491;SDS011;37569;50.548;8.778;2023-11-19T15:38:53;20.6;;;8.5;;
51491;SDS011;37569;50.548;8.778;2023-11-19T15:43:53;19;;;6.4;;
51491;SDS011;37569;50.548;8.778;2023-11-19T15:48:54;14.2;;;4;;
51491;SDS011;37569;50.548;8.778;2023-11-19T15:53:54;13.5;;;3.7;;
51491;SDS011;37569;50.548;8.778;2023-11-19T15:58:55;16.7;;;6;;
51491;SDS011;37569;50.548;8.778;2023-11-19T16:03:55;16.3;;;3.9;;
51491;SDS011;37569;50.548;8.778;2023-11-19T16:08:56;10;;;3.4;;
51491;SDS011;37569;50.548;8.778;2023-11-19T16:13:56;12.1;;;3.5;;
51491;SDS011;37569;50.548;8.778;2023-11-19T16:18:57;11.9;;;3.4;;
51491;SDS011;37569;50.548;8.778;2023-11-19T16:23:57;13.4;;;3.5;;
51491;SDS011;37569;50.548;8.778;2023-11-19T16:28:58;11.2;;;2.9;;
51491;SDS011;37569;50.548;8.778;2023-11-19T16:33:58;11.5;;;2.5;;
51491;SDS011;37569;50.548;8.778;2023-11-19T16:38:59;15;;;3.4;;
51491;SDS011;37569;50.548;8.778;2023-11-19T16:43:59;8.7;;;2.8;;
51491;SDS011;37569;50.548;8.778;2023-11-19T16:49:00;11.6;;;3.2;;
51491;SDS011;37569;50.548;8.778;2023-11-19T16:54:00;10.7;;;2.9;;
51491;SDS011;37569;50.548;8.778;2023-11-19T16:59:01;10.2;;;2.8;;
51491;SDS011;37569;50.548;8.778;2023-11-19T17:04:02;11.1;;;3;;
51491;SDS011;37569;50.548;8.778;2023-11-19T17:09:02;13.2;;;3.5;;
51491;SDS011;37569;50.548;8.778;2023-11-19T17:14:03;9.6;;;3.2;;
51491;SDS011;37569;50.548;8.778;2023-11-19T17:19:03;11.4;;;3;;
51491;SDS011;37569;50.548;8.778;2023-11-19T17:24:04;13.1;;;3.4;;
51491;SDS011;37569;50.548;8.778;2023-11-19T17:29:04;12.4;;;3.2;;
51491;SDS011;37569;50.548;8.778;2023-11-19T17:34:05;14.3;;;3.1;;
51491;SDS011;37569;50.548;8.778;2023-11-19T17:39:05;10.2;;;3;;
51491;SDS011;37569;50.548;8.778;2023-11-19T17:44:06;12.8;;;3;;
51491;SDS011;37569;50.548;8.778;2023-11-19T17:49:06;9.5;;;2.6;;
51491;SDS011;37569;50.548;8.778;2023-11-19T17:54:07;7.7;;;2.7;;
51491;SDS011;37569;50.548;8.778;2023-11-19T17:59:07;11;;;2.8;;
51491;SDS011;37569;50.548;8.778;2023-11-19T18:04:08;15.5;;;2.8;;
51491;SDS011;37569;50.548;8.778;2023-11-19T18:09:08;10.9;;;2.9;;
51491;SDS011;37569;50.548;8.778;2023-11-19T18:14:09;11.7;;;3;;
51491;SDS011;37569;50.548;8.778;2023-11-19T18:19:09;11.8;;;2.6;;
51491;SDS011;37569;50.548;8.778;2023-11-19T18:24:10;12.3;;;2.6;;
51491;SDS011;37569;50.548;8.778;2023-11-19T18:29:10;13.8;;;3;;
51491;SDS011;37569;50.548;8.778;2023-11-19T18:34:11;13;;;3.2;;
51491;SDS011;37569;50.548;8.778;2023-11-19T18:39:11;12.2;;;2.7;;
51491;SDS011;37569;50.548;8.778;2023-11-19T18:44:12;10.7;;;2.8;;
51491;SDS011;37569;50.548;8.778;2023-11-19T18:49:12;15.9;;;4.2;;
51491;SDS011;37569;50.548;8.778;2023-11-19T18:54:13;12.6;;;3.3;;
51491;SDS011;37569;50.548;8.778;2023-11-19T18:59:13;13.8;;;2.8;;
51491;SDS011;37569;50.548;8.778;2023-11-19T19:04:14;13.7;;;2.6;;
51491;SDS011;37569;50.548;8.778;2023-11-19T19:09:14;10.9;;;2.5;;
51491;SDS011;37569;50.548;8.778;2023-11-19T19:14:15;8.6;;;2.7;;
51491;SDS011;37569;50.548;8.778;2023-11-19T19:19:15;12.1;;;3.1;;
51491;SDS011;37569;50.548;8.778;2023-11-19T19:24:16;11.2;;;3.8;;
51491;SDS011;37569;50.548;8.778;2023-11-19T19:29:16;12;;;3.2;;
51491;SDS011;37569;50.548;8.778;2023-11-19T19:34:17;12.8;;;2.9;;
51491;SDS011;37569;50.548;8.778;2023-11-19T19:39:17;8.7;;;2.6;;
51491;SDS011;37569;50.548;8.778;2023-11-19T19:44:18;11.1;;;3;;
51491;SDS011;37569;50.548;8.778;2023-11-19T19:49:18;9.2;;;2.8;;
51491;SDS011;37569;50.548;8.778;2023-11-19T19:54:19;11.9;;;3.6;;
51491;SDS011;37569;50.548;8.778;2023-11-19T19:59:19;15.4;;;3.3;;
51491;SDS011;37569;50.548;8.778;2023-11-19T20:04:20;13.8;;;3.5;;
51491;SDS011;37569;50.548;8.778;2023-11-19T20:09:20;13.7;;;3.2;;
51491;SDS011;37569;50.548;8.778;2023-11-19T20:14:21;12.2;;;2.9;;
51491;SDS011;37569;50.548;8.778;2023-11-19T20:19:21;11.3;;;3.3;;
51491;SDS011;37569;50.548;8.778;2023-11-19T20:24:22;10.8;;;3.3;;
51491;SDS011;37569;50.548;8.778;2023-11-19T20:29:22;12.1;;;2.9;;
51491;SDS011;37569;50.548;8.778;2023-11-19T20:34:23;11.4;;;2.9;;
51491;SDS011;37569;50.548;8.778;2023-11-19T20:39:23;14.1;;;3;;
51491;SDS011;37569;50.548;8.778;2023-11-19T20:44:24;12.9;;;3;;
51491;SDS011;37569;50.548;8.778;2023-11-19T20:49:24;15.9;;;3.6;;
51491;SDS011;37569;50.548;8.778;2023-11-19T20:54:25;11;;;2.8;;
51491;SDS011;37569;50.548;8.778;2023-11-19T20:59:25;10.9;;;3.2;;
51491;SDS011;37569;50.548;8.778;2023-11-19T21:04:26;12.1;;;2.9;;
51491;SDS011;37569;50.548;8.778;2023-11-19T21:09:27;10.1;;;2.9;;
51491;SDS011;37569;50.548;8.778;2023-11-19T21:14:27;10.8;;;3;;
51491;SDS011;37569;50.548;8.778;2023-11-19T21:19:28;10.2;;;2.9;;
51491;SDS011;37569;50.548;8.778;2023-11-19T21:24:28;11.6;;;2.8;;
51491;SDS011;37569;50.548;8.778;2023-11-19T21:29:29;9.6;;;2.7;;
51491;SDS011;37569;50.548;8.778;2023-11-19T21:34:29;11.6;;;2.7;;
51491;SDS011;37569;50.548;8.778;2023-11-19T21:39:30;11.8;;;3;;
51491;SDS011;37569;50.548;8.778;2023-11-19T21:44:31;10.2;;;2.8;;
51491;SDS011;37569;50.548;8.778;2023-11-19T21:49:31;9.3;;;2.6;;
51491;SDS011;37569;50.548;8.778;2023-11-19T21:54:32;13.2;;;2.6;;
51491;SDS011;37569;50.548;8.778;2023-11-19T21:59:32;8.6;;;2.2;;
51491;SDS011;37569;50.548;8.778;2023-11-19T22:04:33;8.5;;;2.4;;
51491;SDS011;37569;50.548;8.778;2023-11-19T22:09:33;11.2;;;2.8;;
51491;SDS011;37569;50.548;8.778;2023-11-19T22:14:34;9.5;;;2.6;;
51491;SDS011;37569;50.548;8.778;2023-11-19T22:19:34;9.8;;;2.4;;
51491;SDS011;37569;50.548;8.778;2023-11-19T22:24:35;11;;;2.4;;
51491;SDS011;37569;50.548;8.778;2023-11-19T22:29:35;9;;;2.6;;
51491;SDS011;37569;50.548;8.778;2023-11-19T22:34:36;7.9;;;2.6;;
51491;SDS011;37569;50.548;8.778;2023-11-19T22:39:36;11.2;;;2.5;;
51491;SDS011;37569;50.548;8.778;2023-11-19T22:44:37;11.7;;;2.4;;
51491;SDS011;37569;50.548;8.778;2023-11-19T22:49:38;9;;;2.8;;
51491;SDS011;37569;50.548;8.778;2023-11-19T22:54:38;9.2;;;2.2;;
51491;SDS011;37569;50.548;8.778;2023-11-19T22:59:39;9.6;;;2.6;;
51491;SDS011;37569;50.548;8.778;2023-11-19T23:04:39;9.4;;;2.7;;
51491;SDS011;37569;50.548;8.778;2023-11-19T23:09:40;8.4;;;2.4;;
51491;SDS011;37569;50.548;8.778;2023-11-19T23:14:41;7.6;;;2.1;;
51491;SDS011;37569;50.548;8.778;2023-11-19T23:19:41;8.4;;;2.3;;
51491;SDS011;37569;50.548;8.778;2023-11-19T23:24:42;8.9;;;2.6;;
51491;SDS011;37569;50.548;8.778;2023-11-19T23:29:42;8.9;;;2.2;;
51491;SDS011;37569;50.548;8.778;2023-11-19T23:34:43;8.2;;;2;;
51491;SDS011;37569;50.548;8.778;2023-11-19T23:39:43;8.6;;;2.4;;
51491;SDS011;37569;50.548;8.778;2023-11-19T23:44:44;10.1;;;2.3;;
51491;SDS011;37569;50.548;8.778;2023-11-19T23:49:45;7.8;;;2.1;;
51491;SDS011;37569;50.548;8.778;2023-11-19T23:54:45;8.4;;;2.2;;
51491;SDS011;37569;50.548;8.778;2023-11-19T23:59:46;8.1;;;2.1;;
